.
WxDataArchive / Data Records for 2008-10-08
2008-10-07 October 2008 2008-10-09

Data Records for Wednesday, 08 October 2008

Time	Temp	Chill	HIndex	Humid	Dewpt	 Wind 	HiWind	WindDir	Rain 	Barom 
-----	----	-----	------	-----	-----	------	------	-------	-----	----- 
00:00	58.3	58.3	58.3	85	53.8	0	1	158	0.01	29.884 
00:05	58.6	58.6	58.6	88	55.1	0	2	315	0.01	29.879 
00:10	58.9	58.9	58.9	90	56.0	0	2	338	0.05	29.875 
00:15	59.2	59.2	59.2	91	56.6	1	2	45	0.03	29.871 
00:20	59.5	59.5	59.5	92	57.2	1	2	45	0.01	29.866 
00:25	59.6	59.6	59.6	93	57.6	1	2	45	0.00	29.865 
00:30	59.8	59.8	59.8	93	57.8	0	3	112	0.03	29.863 
00:35	59.9	59.9	59.9	94	58.2	1	4	112	0.02	29.859 
00:40	60.2	60.2	60.2	94	58.5	1	4	112	0.01	29.857 
00:45	60.4	60.4	60.4	94	58.7	2	6	135	0.01	29.856 
00:50	60.5	60.5	60.5	94	58.8	1	5	90	0.00	29.856 
00:55	60.7	60.7	60.7	94	59.0	1	4	90	0.01	29.855 
01:00	60.7	60.7	60.7	94	59.0	1	4	112	0.01	29.854 
01:05	60.7	60.7	60.7	94	59.0	1	4	112	0.01	29.852 
01:10	60.7	60.7	60.7	94	59.0	0	3	68	0.00	29.850 
01:15	60.7	60.7	60.7	94	59.0	1	4	90	0.00	29.847 
01:20	60.7	60.7	60.7	95	59.3	1	5	135	0.00	29.846 
01:25	60.7	60.7	60.7	95	59.3	1	5	90	0.01	29.844 
01:30	60.7	60.7	60.7	95	59.3	1	3	68	0.00	29.842 
01:35	60.7	60.7	60.7	95	59.3	1	6	90	0.00	29.840 
01:40	60.7	60.7	60.7	95	59.3	0	2	45	0.00	29.838 
01:45	60.7	60.7	60.7	95	59.3	1	4	68	0.00	29.838 
01:50	60.7	60.7	60.7	95	59.3	1	3	68	0.00	29.837 
01:55	60.7	60.7	60.7	95	59.3	1	3	90	0.00	29.836 
02:00	60.7	60.7	60.7	95	59.3	1	2	0	0.00	29.832 
02:05	60.7	60.7	60.7	95	59.3	1	6	90	0.00	29.826 
02:10	60.7	60.7	60.7	95	59.3	1	5	90	0.00	29.824 
02:15	60.7	60.7	60.7	95	59.3	1	4	270	0.00	29.822 
02:20	60.7	60.7	60.7	94	59.0	1	2	270	0.00	29.821 
02:25	60.7	60.7	60.7	94	59.0	1	3	248	0.00	29.820 
02:30	60.7	60.7	60.7	94	59.0	0	2	112	0.00	29.818 
02:35	60.7	60.7	60.7	94	59.0	1	4	90	0.00	29.814 
02:40	60.7	60.7	60.7	94	59.0	0	2	90	0.00	29.809 
02:45	60.7	60.7	60.7	94	59.0	0	2	68	0.00	29.806 
02:50	60.7	60.7	60.7	94	59.0	0	2	135	0.00	29.805 
02:55	60.7	60.7	60.7	94	59.0	0	4	90	0.00	29.804 
03:00	60.5	60.5	60.5	94	58.8	0	4	68	0.00	29.803 
03:05	60.5	60.5	60.5	94	58.8	0	4	68	0.00	29.802 
03:10	60.5	60.5	60.5	94	58.8	1	4	90	0.00	29.798 
03:15	60.5	60.5	60.5	94	58.8	0	2	112	0.00	29.800 
03:20	60.5	60.5	60.5	94	58.8	0	2	112	0.00	29.798 
03:25	60.5	60.5	60.5	94	58.8	0	1	112	0.00	29.796 
03:30	60.5	60.5	60.5	94	58.8	0	2	90	0.00	29.796 
03:35	60.5	60.5	60.5	94	58.8	0	2	90	0.00	29.797 
03:40	60.5	60.5	60.5	94	58.8	0	2	90	0.00	29.797 
03:45	60.5	60.5	60.5	94	58.8	0	4	90	0.00	29.792 
03:50	60.5	60.5	60.5	94	58.8	0	2	112	0.00	29.793 
03:55	60.5	60.5	60.5	94	58.8	0	1	112	0.00	29.792 
04:00	60.7	60.7	60.7	94	59.0	1	3	90	0.00	29.791 
04:05	60.7	60.7	60.7	94	59.0	0	1	90	0.00	29.792 
04:10	60.7	60.7	60.7	94	59.0	1	3	90	0.00	29.791 
04:15	60.7	60.7	60.7	94	59.0	1	2	90	0.00	29.790 
04:20	60.7	60.7	60.7	94	59.0	1	4	225	0.00	29.790 
04:25	60.7	60.7	60.7	94	59.0	1	3	90	0.00	29.789 
04:30	60.7	60.7	60.7	94	59.0	1	4	112	0.00	29.786 
04:35	60.7	60.7	60.7	94	59.0	1	3	112	0.00	29.783 
04:40	60.7	60.7	60.7	94	59.0	0	1	112	0.00	29.781 
04:45	60.7	60.7	60.7	94	59.0	1	6	90	0.00	29.785 
04:50	60.7	60.7	60.7	94	59.0	1	4	90	0.00	29.783 
04:55	60.7	60.7	60.7	94	59.0	0	1	90	0.00	29.782 
05:00	60.7	60.7	60.7	94	59.0	1	2	90	0.00	29.775 
05:05	60.7	60.7	60.7	94	59.0	1	5	112	0.00	29.779 
05:10	60.7	60.7	60.7	94	59.0	1	3	112	0.00	29.775 
05:15	60.7	60.7	60.7	94	59.0	1	4	112	0.00	29.774 
05:20	60.9	60.9	60.9	94	59.2	0	2	90	0.00	29.777 
05:25	60.9	60.9	60.9	94	59.2	0	1	90	0.00	29.777 
05:30	60.9	60.9	60.9	94	59.2	0	2	90	0.00	29.774 
05:35	60.9	60.9	60.9	94	59.2	0	3	90	0.00	29.778 
05:40	60.9	60.9	60.9	94	59.2	1	3	90	0.00	29.776 
05:45	60.9	60.9	60.9	94	59.2	0	2	90	0.00	29.777 
05:50	60.9	60.9	60.9	94	59.2	0	2	315	0.00	29.776 
05:55	60.9	60.9	60.9	94	59.2	1	3	315	0.00	29.775 
06:00	60.9	60.9	60.9	94	59.2	1	2	68	0.00	29.764 
06:05	60.9	60.9	60.9	94	59.2	1	3	112	0.00	29.774 
06:10	60.9	60.9	60.9	94	59.2	1	3	270	0.00	29.769 
06:15	60.9	60.9	60.9	94	59.2	0	3	22	0.00	29.764 
06:20	60.9	60.9	60.9	94	59.2	1	5	90	0.01	29.771 
06:25	60.9	60.9	60.9	94	59.2	0	4	90	0.00	29.774 
06:30	60.9	60.9	60.9	95	59.5	1	4	112	0.00	29.764 
06:35	60.9	60.9	60.9	95	59.5	0	2	270	0.00	29.766 
06:40	60.9	60.9	60.9	95	59.5	0	3	270	0.01	29.765 
06:45	60.9	60.9	60.9	95	59.5	0	2	45	0.00	29.765 
06:50	60.7	60.7	60.7	95	59.3	0	4	315	0.00	29.764 
06:55	60.7	60.7	60.7	95	59.3	0	2	248	0.00	29.764 
07:00	60.7	60.7	60.7	95	59.3	0	2	248	0.00	29.766 
07:05	60.7	60.7	60.7	95	59.3	0	2	292	0.00	29.772 
07:10	60.7	60.7	60.7	95	59.3	0	3	248	0.00	29.771 
07:15	60.7	60.7	60.7	95	59.3	0	3	315	0.00	29.775 
07:20	60.7	60.7	60.7	95	59.3	0	3	248	0.01	29.775 
07:25	60.9	60.9	60.9	95	59.5	0	3	225	0.00	29.775 
07:30	60.9	60.9	60.9	95	59.5	1	3	112	0.01	29.772 
07:35	60.9	60.9	60.9	95	59.5	0	2	270	0.01	29.770 
07:40	60.9	60.9	60.9	95	59.5	0	2	270	0.00	29.767 
07:45	60.9	60.9	60.9	95	59.5	1	3	248	0.00	29.765 
07:50	60.9	60.9	60.9	95	59.5	0	1	68	0.01	29.764 
07:55	61.0	61.0	61.0	95	59.6	0	2	45	0.01	29.762 
08:00	61.0	61.0	61.0	96	59.8	0	2	45	0.00	29.763 
08:05	61.0	61.0	61.0	96	59.8	0	2	0	0.00	29.764 
08:10	61.0	61.0	61.0	96	59.8	1	5	248	0.00	29.765 
08:15	61.2	61.2	61.2	96	60.0	1	3	270	0.00	29.764 
08:20	61.2	61.2	61.2	96	60.0	1	3	248	0.01	29.764 
08:25	61.2	61.2	61.2	96	60.0	1	4	90	0.00	29.761 
08:30	61.3	61.3	61.3	96	60.1	1	5	45	0.00	29.760 
08:35	61.3	61.3	61.3	96	60.1	1	4	90	0.00	29.757 
08:40	61.3	61.3	61.3	96	60.1	1	3	112	0.00	29.752 
08:45	61.5	61.5	61.5	96	60.3	0	2	270	0.00	29.749 
08:50	61.6	61.6	61.6	96	60.4	0	3	270	0.00	29.749 
08:55	61.6	61.6	61.6	96	60.4	1	5	90	0.00	29.747 
09:00	61.8	61.8	61.8	96	60.6	1	5	225	0.00	29.748 
09:05	61.8	61.8	61.8	96	60.6	1	5	292	0.00	29.750 
09:10	61.8	61.8	61.8	96	60.6	1	3	248	0.00	29.749 
09:15	61.8	61.8	61.8	96	60.6	0	4	270	0.00	29.749 
09:20	62.0	62.0	62.0	96	60.8	1	3	292	0.00	29.749 
09:25	62.0	62.0	62.0	96	60.8	1	3	248	0.00	29.749 
09:30	62.0	62.0	62.0	96	60.8	1	5	338	0.00	29.748 
09:35	62.0	62.0	62.0	96	60.8	1	3	248	0.00	29.748 
09:40	62.0	62.0	62.0	96	60.8	1	4	248	0.00	29.748 
09:45	62.1	62.1	62.1	96	60.9	1	6	248	0.00	29.748 
09:50	62.1	62.1	62.1	96	60.9	1	4	248	0.00	29.748 
09:55	62.1	62.1	62.1	96	60.9	1	4	248	0.00	29.744 
10:00	62.1	62.1	62.1	96	60.9	2	5	248	0.00	29.741 
10:05	62.3	62.3	62.3	96	61.1	1	3	90	0.00	29.740 
10:10	62.3	62.3	62.3	96	61.1	1	4	270	0.00	29.738 
10:15	62.3	62.3	62.3	96	61.1	2	6	248	0.00	29.737 
10:20	62.4	62.4	62.4	96	61.2	1	4	248	0.00	29.738 
10:25	62.4	62.4	62.4	95	60.9	2	10	270	0.00	29.737 
10:30	62.4	62.4	62.4	95	60.9	1	4	248	0.00	29.735 
10:35	62.4	62.4	62.4	95	60.9	1	4	248	0.00	29.736 
10:40	62.4	62.4	62.4	95	60.9	1	5	248	0.00	29.736 
10:45	62.6	62.6	62.6	95	61.1	1	4	248	0.01	29.734 
10:50	62.6	62.6	62.6	95	61.1	1	3	292	0.00	29.733 
10:55	62.6	62.6	62.6	95	61.1	1	3	292	0.00	29.733 
11:00	62.6	62.6	62.6	96	61.4	2	7	248	0.00	29.733 
11:05	62.6	62.6	62.6	96	61.4	1	3	248	0.00	29.733 
11:10	62.6	62.6	62.6	96	61.4	1	4	90	0.00	29.733 
11:15	62.6	62.6	62.6	96	61.4	1	4	248	0.00	29.733 
11:20	62.7	62.7	62.7	96	61.5	1	5	248	0.00	29.734 
11:25	62.7	62.7	62.7	96	61.5	1	6	292	0.00	29.733 
11:30	62.7	62.7	62.7	96	61.5	1	3	248	0.00	29.733 
11:35	62.9	62.9	62.9	96	61.7	1	4	248	0.00	29.734 
11:40	63.1	63.1	63.1	96	61.9	2	6	270	0.00	29.734 
11:45	63.1	63.1	63.1	96	61.9	2	5	270	0.01	29.736 
11:50	63.1	63.1	63.1	96	61.9	1	4	248	0.00	29.737 
11:55	63.1	63.1	63.1	96	61.9	1	6	248	0.00	29.739 
12:00	63.2	63.2	63.2	96	62.0	1	5	270	0.01	29.742 
12:05	63.2	63.2	63.2	96	62.0	0	2	270	0.00	29.741 
12:10	63.2	63.2	63.2	96	62.0	2	6	248	0.00	29.742 
12:15	62.6	62.6	62.6	95	61.1	2	5	248	0.00	29.746 
12:20	62.4	62.4	62.4	95	60.9	2	5	270	0.00	29.747 
12:25	62.4	62.4	62.4	95	60.9	2	4	248	0.00	29.747 
12:30	62.0	62.0	62.0	95	60.5	2	7	292	0.00	29.746 
12:35	61.2	61.2	61.2	94	59.5	3	6	270	0.00	29.748 
12:40	61.2	61.2	61.2	93	59.2	2	5	248	0.00	29.747 
12:45	61.3	61.3	61.3	93	59.3	2	7	270	0.00	29.748 
12:50	61.8	61.8	61.8	92	59.4	2	6	248	0.00	29.746 
12:55	62.6	62.6	62.6	91	59.9	3	5	270	0.00	29.745 
13:00	62.6	62.6	62.6	87	58.7	4	7	270	0.00	29.745 
13:05	63.2	63.2	63.2	87	59.3	2	5	248	0.00	29.743 
13:10	63.2	63.2	63.2	81	57.3	4	7	270	0.00	29.743 
13:15	62.6	62.6	62.6	80	56.3	3	7	270	0.00	29.745 
13:20	62.3	62.3	62.3	81	56.4	2	5	248	0.00	29.748 
13:25	62.3	62.3	62.3	82	56.7	2	9	248	0.00	29.747 
13:30	62.4	62.4	62.4	81	56.5	2	4	270	0.00	29.747 
13:35	62.3	62.3	62.3	79	55.7	3	6	270	0.00	29.748 
13:40	62.0	62.0	62.0	77	54.7	3	9	270	0.00	29.750 
13:45	62.3	62.3	62.3	81	56.4	3	5	248	0.00	29.750 
13:50	62.7	62.7	62.7	75	54.7	3	6	270	0.00	29.747 
13:55	63.2	63.2	63.2	73	54.4	3	7	248	0.00	29.745 
14:00	63.2	63.2	63.2	70	53.2	3	7	270	0.00	29.742 
14:05	63.1	63.1	63.1	74	54.7	1	6	248	0.00	29.743 
14:10	63.1	63.1	63.1	75	55.0	2	6	248	0.00	29.746 
14:15	63.2	63.2	63.2	75	55.1	3	6	248	0.00	29.748 
14:20	62.7	62.7	62.7	74	54.3	3	5	270	0.00	29.748 
14:25	62.6	62.6	62.6	73	53.8	3	5	270	0.00	29.749 
14:30	63.1	63.1	63.1	74	54.7	2	5	270	0.00	29.748 
14:35	63.5	63.5	63.5	73	54.7	3	6	248	0.00	29.748 
14:40	63.7	63.7	63.7	73	54.9	3	7	248	0.00	29.748 
14:45	64.0	64.0	64.0	73	55.2	2	4	270	0.00	29.747 
14:50	64.2	64.2	64.2	71	54.6	3	6	270	0.00	29.749 
14:55	64.3	64.3	64.3	69	53.9	3	6	270	0.00	29.752 
15:00	64.2	64.2	64.2	71	54.6	3	6	270	0.00	29.756 
15:05	64.2	64.2	64.2	71	54.6	3	5	248	0.00	29.754 
15:10	64.0	64.0	64.0	72	54.8	2	5	270	0.00	29.759 
15:15	63.9	63.9	63.9	72	54.7	2	5	248	0.00	29.761 
15:20	63.2	63.2	63.2	72	54.0	3	6	270	0.00	29.764 
15:25	62.7	62.7	62.7	73	53.9	3	9	270	0.00	29.768 
15:30	62.4	62.4	62.4	74	54.0	3	5	248	0.00	29.770 
15:35	62.4	62.4	62.4	73	53.6	4	6	270	0.00	29.772 
15:40	62.0	62.0	62.0	74	53.6	3	6	270	0.00	29.777 
15:45	62.0	62.0	62.0	76	54.3	2	4	270	0.00	29.779 
15:50	61.5	61.5	61.5	77	54.2	3	7	270	0.00	29.781 
15:55	61.2	61.2	61.2	77	53.9	2	5	248	0.00	29.782 
16:00	60.5	60.5	60.5	77	53.2	2	5	270	0.00	29.788 
16:05	60.2	60.2	60.2	78	53.3	2	4	270	0.00	29.789 
16:10	60.1	60.1	60.1	78	53.2	2	6	248	0.00	29.791 
16:15	59.9	59.9	59.9	78	53.0	1	4	270	0.00	29.789 
16:20	59.9	59.9	59.9	78	53.0	2	5	270	0.00	29.791 
16:25	59.8	59.8	59.8	80	53.6	1	4	270	0.00	29.791 
16:30	59.8	59.8	59.8	79	53.3	2	5	270	0.00	29.794 
16:35	59.6	59.6	59.6	80	53.4	2	3	270	0.00	29.796 
16:40	59.5	59.5	59.5	80	53.3	2	4	270	0.00	29.798 
16:45	59.0	59.0	59.0	81	53.2	3	6	270	0.00	29.798 
16:50	58.9	58.9	58.9	81	53.1	2	5	270	0.00	29.799 
16:55	58.7	58.7	58.7	82	53.2	2	6	270	0.00	29.803 
17:00	58.7	58.7	58.7	82	53.2	1	3	270	0.00	29.808 
17:05	58.4	58.4	58.4	82	52.9	2	4	270	0.00	29.809 
17:10	58.3	58.3	58.3	82	52.8	2	4	270	0.00	29.811 
17:15	58.3	58.3	58.3	83	53.2	1	4	248	0.00	29.814 
17:20	58.0	58.0	58.0	83	52.9	2	4	270	0.00	29.817 
17:25	57.8	57.8	57.8	83	52.7	2	5	270	0.00	29.820 
17:30	57.6	57.6	57.6	83	52.5	2	7	270	0.00	29.826 
17:35	57.5	57.5	57.5	83	52.4	2	4	270	0.00	29.826 
17:40	57.3	57.3	57.3	84	52.5	2	6	270	0.00	29.826 
17:45	57.2	57.2	57.2	84	52.4	2	4	248	0.00	29.830 
17:50	57.0	57.0	57.0	84	52.2	2	5	270	0.00	29.831 
17:55	57.0	57.0	57.0	84	52.2	2	4	270	0.00	29.832 
18:00	57.0	57.0	57.0	84	52.2	1	3	270	0.00	29.832 
18:05	56.9	56.9	56.9	84	52.1	1	3	248	0.00	29.831 
18:10	56.9	56.9	56.9	84	52.1	1	3	270	0.00	29.833 
18:15	56.9	56.9	56.9	84	52.1	1	2	270	0.00	29.834 
18:20	56.9	56.9	56.9	84	52.1	1	3	270	0.00	29.832 
18:25	56.9	56.9	56.9	84	52.1	1	2	270	0.00	29.832 
18:30	56.9	56.9	56.9	84	52.1	1	3	270	0.00	29.834 
18:35	56.9	56.9	56.9	84	52.1	0	2	270	0.00	29.835 
18:40	56.7	56.7	56.7	84	51.9	1	3	270	0.00	29.834 
18:45	56.7	56.7	56.7	85	52.2	1	3	270	0.00	29.835 
18:50	56.7	56.7	56.7	85	52.2	0	2	270	0.00	29.843 
18:55	56.7	56.7	56.7	85	52.2	1	3	270	0.00	29.846 
19:00	56.7	56.7	56.7	85	52.2	0	2	248	0.00	29.849 
19:05	56.7	56.7	56.7	86	52.6	0	2	248	0.00	29.850 
19:10	56.7	56.7	56.7	86	52.6	0	3	248	0.00	29.855 
19:15	56.7	56.7	56.7	86	52.6	1	3	248	0.00	29.858 
19:20	56.7	56.7	56.7	86	52.6	0	2	248	0.00	29.858 
19:25	56.7	56.7	56.7	86	52.6	0	2	248	0.00	29.859 
19:30	56.6	56.6	56.6	86	52.5	0	1	248	0.00	29.859 
19:35	56.7	56.7	56.7	86	52.6	0	1	248	0.00	29.860 
19:40	56.7	56.7	56.7	86	52.6	0	2	248	0.00	29.861 
19:45	56.7	56.7	56.7	86	52.6	0	2	248	0.00	29.861 
19:50	56.7	56.7	56.7	86	52.6	0	1	248	0.00	29.862 
19:55	56.7	56.7	56.7	86	52.6	0	1	248	0.00	29.862 
20:00	56.7	56.7	56.7	86	52.6	0	1	248	0.00	29.862 
20:05	56.7	56.7	56.7	86	52.6	0	1	248	0.00	29.862 
20:10	56.7	56.7	56.7	85	52.2	0	1	248	0.00	29.861 
20:15	56.7	56.7	56.7	85	52.2	0	1	248	0.00	29.862 
20:20	56.7	56.7	56.7	85	52.2	0	1	248	0.00	29.863 
20:25	56.7	56.7	56.7	85	52.2	0	1	248	0.00	29.864 
20:30	56.7	56.7	56.7	85	52.2	0	1	248	0.00	29.866 
20:35	56.6	56.6	56.6	85	52.1	0	1	248	0.00	29.865 
20:40	56.6	56.6	56.6	85	52.1	0	1	248	0.00	29.872 
20:45	56.6	56.6	56.6	85	52.1	0	2	248	0.00	29.875 
20:50	56.5	56.5	56.5	85	52.0	0	1	248	0.00	29.877 
20:55	56.3	56.3	56.3	85	51.8	0	1	248	0.00	29.880 
21:00	56.0	56.0	56.0	85	51.6	0	0	---	0.00	29.882 
21:05	55.9	55.9	55.9	86	51.8	0	1	248	0.00	29.886 
21:10	55.6	55.6	55.6	87	51.8	0	1	248	0.00	29.887 
21:15	55.6	55.6	55.6	87	51.8	0	1	248	0.00	29.890 
21:20	55.6	55.6	55.6	87	51.8	0	1	248	0.00	29.891 
21:25	55.6	55.6	55.6	87	51.8	0	1	248	0.00	29.891 
21:30	55.6	55.6	55.6	88	52.1	0	2	248	0.00	29.893 
21:35	55.6	55.6	55.6	87	51.8	0	1	248	0.00	29.892 
21:40	55.6	55.6	55.6	87	51.8	0	1	248	0.00	29.893 
21:45	55.6	55.6	55.6	87	51.8	0	1	248	0.00	29.893 
21:50	55.4	55.4	55.4	87	51.6	0	1	248	0.00	29.895 
21:55	55.3	55.3	55.3	87	51.5	0	1	248	0.00	29.897 
22:00	55.1	55.1	55.1	87	51.3	0	1	248	0.00	29.897 
22:05	54.8	54.8	54.8	87	51.0	0	0	---	0.00	29.895 
22:10	54.5	54.5	54.5	87	50.7	0	0	---	0.00	29.895 
22:15	54.1	54.1	54.1	88	50.6	0	0	---	0.00	29.898 
22:20	53.8	53.8	53.8	88	50.3	0	0	---	0.00	29.899 
22:25	53.5	53.5	53.5	88	50.0	0	0	---	0.00	29.900 
22:30	53.2	53.2	53.2	89	50.0	0	0	---	0.00	29.900 
22:35	52.9	52.9	52.9	89	49.7	0	0	---	0.00	29.902 
22:40	52.6	52.6	52.6	90	49.7	0	0	---	0.00	29.902 
22:45	52.3	52.3	52.3	90	49.5	0	0	---	0.00	29.905 
22:50	52.2	52.2	52.2	91	49.7	0	0	---	0.00	29.904 
22:55	52.0	52.0	52.0	91	49.5	0	0	---	0.00	29.901 
23:00	51.7	51.7	51.7	91	49.2	0	0	---	0.00	29.899 
23:05	51.4	51.4	51.4	92	49.2	0	0	---	0.00	29.901 
23:10	51.3	51.3	51.3	92	49.1	0	0	---	0.00	29.902 
23:15	51.0	51.0	51.0	92	48.8	0	0	---	0.00	29.902 
23:20	50.7	50.7	50.7	92	48.5	0	0	---	0.00	29.902 
23:25	50.4	50.4	50.4	92	48.2	0	0	---	0.00	29.900 
23:30	50.2	50.2	50.2	92	48.0	0	0	---	0.00	29.900 
23:35	50.1	50.1	50.1	92	47.9	0	0	---	0.00	29.900 
23:40	50.1	50.1	50.1	93	48.2	0	0	---	0.00	29.902 
23:45	50.1	50.1	50.1	93	48.2	0	0	---	0.00	29.902 
23:50	49.9	49.9	49.9	93	48.0	0	0	---	0.00	29.901 
23:55	49.8	49.8	49.8	93	47.9	0	0	---	0.00	29.903 

CoCoRaHS
IN-AL-39
A2 Web Hosting
Creative Commons License
GoDaddy
Look for:

loaded 2017-10-17 22:12:33 • last modified 2010-11-18 10:43:29
Privacy PolicyDisclaimer
• wx.awcolley.com is powered by PmWiki v.2002016 •
• all content (unless otherwise noted) © 2017 A W Colley